sensor_id;sensor_type;location;lat;lon;timestamp;pressure;altitude;pressure_sealevel;temperature;humidity
60170;BME280;46042;49.444;6.862;2022-09-21T00:01:28;99517.91;;;7.38;98.99
60170;BME280;46042;49.444;6.862;2022-09-21T00:03:57;99511.16;;;7.31;100.00
60170;BME280;46042;49.444;6.862;2022-09-21T00:06:28;99508.72;;;7.26;100.00
60170;BME280;46042;49.444;6.862;2022-09-21T00:08:56;99515.63;;;7.29;99.17
60170;BME280;46042;49.444;6.862;2022-09-21T00:11:25;99512.25;;;7.25;99.09
60170;BME280;46042;49.444;6.862;2022-09-21T00:14:05;99513.16;;;7.24;99.00
60170;BME280;46042;49.444;6.862;2022-09-21T00:16:33;99518.53;;;7.21;99.63
60170;BME280;46042;49.444;6.862;2022-09-21T00:18:59;99518.66;;;7.18;98.25
60170;BME280;46042;49.444;6.862;2022-09-21T00:21:26;99517.00;;;7.15;98.69
60170;BME280;46042;49.444;6.862;2022-09-21T00:23:57;99518.81;;;7.13;97.69
60170;BME280;46042;49.444;6.862;2022-09-21T00:26:25;99516.28;;;7.11;98.26
60170;BME280;46042;49.444;6.862;2022-09-21T00:28:57;99516.50;;;7.05;97.40
60170;BME280;46042;49.444;6.862;2022-09-21T00:31:26;99514.91;;;7.01;98.40
60170;BME280;46042;49.444;6.862;2022-09-21T00:33:53;99518.59;;;6.95;98.91
60170;BME280;46042;49.444;6.862;2022-09-21T00:36:22;99518.59;;;6.95;98.60
60170;BME280;46042;49.444;6.862;2022-09-21T00:38:57;99517.75;;;6.95;98.19
60170;BME280;46042;49.444;6.862;2022-09-21T00:41:25;99520.41;;;6.93;98.52
60170;BME280;46042;49.444;6.862;2022-09-21T00:46:44;99520.69;;;6.86;97.68
60170;BME280;46042;49.444;6.862;2022-09-21T00:49:12;99520.84;;;6.81;97.43
60170;BME280;46042;49.444;6.862;2022-09-21T00:51:40;99525.31;;;6.79;96.97
60170;BME280;46042;49.444;6.862;2022-09-21T00:54:17;99518.53;;;6.73;96.86
60170;BME280;46042;49.444;6.862;2022-09-21T00:56:45;99523.03;;;6.69;96.45
60170;BME280;46042;49.444;6.862;2022-09-21T00:59:12;99520.50;;;6.66;96.37
60170;BME280;46042;49.444;6.862;2022-09-21T01:01:44;99524.22;;;6.61;96.50
60170;BME280;46042;49.444;6.862;2022-09-21T01:04:11;99521.69;;;6.58;96.22
60170;BME280;46042;49.444;6.862;2022-09-21T01:06:39;99534.09;;;6.52;96.15
60170;BME280;46042;49.444;6.862;2022-09-21T01:09:07;99531.69;;;6.46;96.52
60170;BME280;46042;49.444;6.862;2022-09-21T01:11:42;99526.56;;;6.43;96.48
60170;BME280;46042;49.444;6.862;2022-09-21T01:16:52;99537.22;;;6.37;96.74
60170;BME280;46042;49.444;6.862;2022-09-21T01:27:20;99522.69;;;6.28;96.76
60170;BME280;46042;49.444;6.862;2022-09-21T01:29:55;99522.81;;;6.25;96.90
60170;BME280;46042;49.444;6.862;2022-09-21T01:32:34;99527.25;;;6.23;96.22
60170;BME280;46042;49.444;6.862;2022-09-21T01:35:19;99527.53;;;6.14;97.97
60170;BME280;46042;49.444;6.862;2022-09-21T01:38:10;99525.03;;;6.10;98.02
60170;BME280;46042;49.444;6.862;2022-09-21T01:40:41;99518.19;;;6.06;98.72
60170;BME280;46042;49.444;6.862;2022-09-21T01:43:13;99520.00;;;6.04;98.43
60170;BME280;46042;49.444;6.862;2022-09-21T01:45:46;99520.97;;;6.02;98.89
60170;BME280;46042;49.444;6.862;2022-09-21T01:48:15;99526.22;;;6.00;99.17
60170;BME280;46042;49.444;6.862;2022-09-21T01:50:46;99525.47;;;5.96;100.00
60170;BME280;46042;49.444;6.862;2022-09-21T01:53:50;99524.66;;;5.94;99.43
60170;BME280;46042;49.444;6.862;2022-09-21T01:56:19;99522.88;;;5.95;99.29
60170;BME280;46042;49.444;6.862;2022-09-21T02:02:00;99523.00;;;5.92;98.93
60170;BME280;46042;49.444;6.862;2022-09-21T02:04:30;99516.06;;;5.91;98.66
60170;BME280;46042;49.444;6.862;2022-09-21T02:06:56;99512.63;;;5.89;97.95
60170;BME280;46042;49.444;6.862;2022-09-21T02:09:24;99518.88;;;5.84;97.79
60170;BME280;46042;49.444;6.862;2022-09-21T02:11:50;99518.94;;;5.81;97.44
60170;BME280;46042;49.444;6.862;2022-09-21T02:14:20;99519.03;;;5.80;98.16
60170;BME280;46042;49.444;6.862;2022-09-21T02:17:14;99513.94;;;5.75;98.22
60170;BME280;46042;49.444;6.862;2022-09-21T02:20:05;99522.78;;;5.71;98.16
60170;BME280;46042;49.444;6.862;2022-09-21T02:22:40;99522.00;;;5.67;98.68
60170;BME280;46042;49.444;6.862;2022-09-21T02:25:12;99513.38;;;5.65;98.46
60170;BME280;46042;49.444;6.862;2022-09-21T02:30:54;99519.78;;;5.55;99.04
60170;BME280;46042;49.444;6.862;2022-09-21T02:33:28;99514.78;;;5.47;99.29
60170;BME280;46042;49.444;6.862;2022-09-21T02:36:04;99515.63;;;5.49;98.63
60170;BME280;46042;49.444;6.862;2022-09-21T02:38:38;99519.97;;;5.49;98.77
60170;BME280;46042;49.444;6.862;2022-09-21T02:44:10;99520.97;;;5.45;98.68
60170;BME280;46042;49.444;6.862;2022-09-21T02:49:18;99518.53;;;5.38;98.98
60170;BME280;46042;49.444;6.862;2022-09-21T02:51:49;99517.69;;;5.38;98.97
60170;BME280;46042;49.444;6.862;2022-09-21T02:54:21;99514.38;;;5.33;98.68
60170;BME280;46042;49.444;6.862;2022-09-21T02:56:50;99516.22;;;5.29;99.50
60170;BME280;46042;49.444;6.862;2022-09-21T02:59:18;99516.25;;;5.27;99.46
60170;BME280;46042;49.444;6.862;2022-09-21T03:01:48;99523.25;;;5.27;99.28
60170;BME280;46042;49.444;6.862;2022-09-21T03:04:15;99509.31;;;5.26;98.34
60170;BME280;46042;49.444;6.862;2022-09-21T03:06:42;99509.41;;;5.23;98.50
60170;BME280;46042;49.444;6.862;2022-09-21T03:09:08;99506.00;;;5.21;98.61
60170;BME280;46042;49.444;6.862;2022-09-21T03:11:35;99506.91;;;5.20;98.09
60170;BME280;46042;49.444;6.862;2022-09-21T03:14:02;99504.41;;;5.16;98.71
60170;BME280;46042;49.444;6.862;2022-09-21T03:16:37;99504.41;;;5.16;98.14
60170;BME280;46042;49.444;6.862;2022-09-21T03:19:04;99510.75;;;5.08;98.43
60170;BME280;46042;49.444;6.862;2022-09-21T03:21:31;99507.25;;;5.08;98.51
60170;BME280;46042;49.444;6.862;2022-09-21T03:23:57;99512.56;;;5.05;98.98
60170;BME280;46042;49.444;6.862;2022-09-21T03:26:24;99507.44;;;5.02;99.08
60170;BME280;46042;49.444;6.862;2022-09-21T03:28:50;99507.44;;;5.02;98.48
60170;BME280;46042;49.444;6.862;2022-09-21T03:31:20;99505.84;;;4.97;97.95
60170;BME280;46042;49.444;6.862;2022-09-21T03:33:48;99514.59;;;4.95;98.66
60170;BME280;46042;49.444;6.862;2022-09-21T03:36:15;99509.47;;;4.92;98.35
60170;BME280;46042;49.444;6.862;2022-09-21T03:38:41;99510.41;;;4.89;98.58
60170;BME280;46042;49.444;6.862;2022-09-21T03:41:08;99508.72;;;4.87;98.18
60170;BME280;46042;49.444;6.862;2022-09-21T03:43:35;99506.19;;;4.85;98.22
60170;BME280;46042;49.444;6.862;2022-09-21T03:46:01;99506.28;;;4.82;98.01
60170;BME280;46042;49.444;6.862;2022-09-21T03:48:28;99511.44;;;4.83;97.82
60170;BME280;46042;49.444;6.862;2022-09-21T03:50:55;99514.16;;;4.79;97.84
60170;BME280;46042;49.444;6.862;2022-09-21T03:53:22;99515.06;;;4.78;97.76
60170;BME280;46042;49.444;6.862;2022-09-21T03:55:49;99504.72;;;4.75;97.83
60170;BME280;46042;49.444;6.862;2022-09-21T03:58:15;99516.94;;;4.74;97.63
60170;BME280;46042;49.444;6.862;2022-09-21T04:00:42;99516.97;;;4.73;97.62
60170;BME280;46042;49.444;6.862;2022-09-21T04:03:08;99516.25;;;4.67;97.82
60170;BME280;46042;49.444;6.862;2022-09-21T04:05:37;99511.91;;;4.66;97.46
60170;BME280;46042;49.444;6.862;2022-09-21T04:08:04;99516.31;;;4.64;97.46
60170;BME280;46042;49.444;6.862;2022-09-21T04:10:30;99510.31;;;4.61;97.27
60170;BME280;46042;49.444;6.862;2022-09-21T04:13:02;99524.31;;;4.58;97.15
60170;BME280;46042;49.444;6.862;2022-09-21T04:15:29;99523.56;;;4.54;97.84
60170;BME280;46042;49.444;6.862;2022-09-21T04:17:56;99521.91;;;4.50;97.55
60170;BME280;46042;49.444;6.862;2022-09-21T04:20:24;99528.06;;;4.48;98.22
60170;BME280;46042;49.444;6.862;2022-09-21T04:22:51;99523.81;;;4.44;98.42
60170;BME280;46042;49.444;6.862;2022-09-21T04:25:18;99522.09;;;4.43;98.72
60170;BME280;46042;49.444;6.862;2022-09-21T04:27:45;99531.63;;;4.44;98.54
60170;BME280;46042;49.444;6.862;2022-09-21T04:30:13;99535.13;;;4.44;98.33
60170;BME280;46042;49.444;6.862;2022-09-21T04:32:40;99529.09;;;4.42;98.20
60170;BME280;46042;49.444;6.862;2022-09-21T04:35:07;99534.34;;;4.40;97.91
60170;BME280;46042;49.444;6.862;2022-09-21T04:37:34;99536.03;;;4.41;97.49
60170;BME280;46042;49.444;6.862;2022-09-21T04:40:00;99534.41;;;4.37;97.50
60170;BME280;46042;49.444;6.862;2022-09-21T04:42:27;99535.31;;;4.36;97.42
60170;BME280;46042;49.444;6.862;2022-09-21T04:44:54;99533.63;;;4.34;97.15
60170;BME280;46042;49.444;6.862;2022-09-21T04:47:21;99539.00;;;4.29;97.86
60170;BME280;46042;49.444;6.862;2022-09-21T04:49:50;99543.44;;;4.24;97.57
60170;BME280;46042;49.444;6.862;2022-09-21T04:52:18;99540.91;;;4.22;98.09
60170;BME280;46042;49.444;6.862;2022-09-21T04:54:45;99541.78;;;4.21;97.75
60170;BME280;46042;49.444;6.862;2022-09-21T04:57:13;99543.56;;;4.19;98.05
60170;BME280;46042;49.444;6.862;2022-09-21T04:59:39;99547.97;;;4.17;97.71
60170;BME280;46042;49.444;6.862;2022-09-21T05:02:06;99542.00;;;4.13;98.13
60170;BME280;46042;49.444;6.862;2022-09-21T05:04:33;99543.81;;;4.10;98.34
60170;BME280;46042;49.444;6.862;2022-09-21T05:06:59;99547.31;;;4.09;97.48
60170;BME280;46042;49.444;6.862;2022-09-21T05:09:26;99545.53;;;4.09;97.28
60170;BME280;46042;49.444;6.862;2022-09-21T05:12:11;99542.19;;;4.06;97.17
60170;BME280;46042;49.444;6.862;2022-09-21T05:14:37;99549.38;;;3.96;98.00
60170;BME280;46042;49.444;6.862;2022-09-21T05:17:04;99551.16;;;3.94;97.75
60170;BME280;46042;49.444;6.862;2022-09-21T05:19:30;99546.81;;;3.93;98.05
60170;BME280;46042;49.444;6.862;2022-09-21T05:21:57;99556.41;;;3.91;98.34
60170;BME280;46042;49.444;6.862;2022-09-21T05:24:24;99555.53;;;3.92;98.71
60170;BME280;46042;49.444;6.862;2022-09-21T05:26:50;99559.03;;;3.91;99.09
60170;BME280;46042;49.444;6.862;2022-09-21T05:29:17;99566.09;;;3.86;100.00
60170;BME280;46042;49.444;6.862;2022-09-21T05:32:02;99567.72;;;3.91;99.34
60170;BME280;46042;49.444;6.862;2022-09-21T05:37:51;99570.41;;;3.88;99.19
60170;BME280;46042;49.444;6.862;2022-09-21T05:40:20;99571.25;;;3.89;99.00
60170;BME280;46042;49.444;6.862;2022-09-21T05:42:47;99568.63;;;3.89;98.93
60170;BME280;46042;49.444;6.862;2022-09-21T05:45:15;99575.56;;;3.90;99.22
60170;BME280;46042;49.444;6.862;2022-09-21T05:48:02;99579.03;;;3.90;99.04
60170;BME280;46042;49.444;6.862;2022-09-21T05:50:39;99580.84;;;3.87;99.66
60170;BME280;46042;49.444;6.862;2022-09-21T05:56:23;99579.16;;;3.84;100.00
60170;BME280;46042;49.444;6.862;2022-09-21T06:04:18;99592.03;;;3.92;99.87
60170;BME280;46042;49.444;6.862;2022-09-21T06:06:44;99590.22;;;3.95;99.74
60170;BME280;46042;49.444;6.862;2022-09-21T06:09:11;99593.63;;;3.97;100.00
60170;BME280;46042;49.444;6.862;2022-09-21T06:11:37;99591.81;;;4.01;100.00
60170;BME280;46042;49.444;6.862;2022-09-21T06:14:04;99591.63;;;4.09;100.00
60170;BME280;46042;49.444;6.862;2022-09-21T06:16:39;99585.69;;;4.38;100.00
60170;BME280;46042;49.444;6.862;2022-09-21T06:19:10;99594.94;;;4.52;100.00
60170;BME280;46042;49.444;6.862;2022-09-21T06:21:37;99587.91;;;4.54;100.00
60170;BME280;46042;49.444;6.862;2022-09-21T06:24:04;99596.66;;;4.51;100.00
60170;BME280;46042;49.444;6.862;2022-09-21T06:26:31;99595.91;;;4.48;100.00
60170;BME280;46042;49.444;6.862;2022-09-21T06:28:57;99592.53;;;4.44;100.00
60170;BME280;46042;49.444;6.862;2022-09-21T06:31:28;99600.22;;;4.49;100.00
60170;BME280;46042;49.444;6.862;2022-09-21T06:33:55;99595.84;;;4.49;100.00
60170;BME280;46042;49.444;6.862;2022-09-21T06:36:21;99597.53;;;4.52;100.00
60170;BME280;46042;49.444;6.862;2022-09-21T06:38:48;99594.03;;;4.53;100.00
60170;BME280;46042;49.444;6.862;2022-09-21T06:41:15;99597.44;;;4.57;100.00
60170;BME280;46042;49.444;6.862;2022-09-21T06:43:46;99593.03;;;4.59;100.00
60170;BME280;46042;49.444;6.862;2022-09-21T06:46:16;99589.31;;;4.67;100.00
60170;BME280;46042;49.444;6.862;2022-09-21T06:48:43;99590.81;;;5.08;100.00
60170;BME280;46042;49.444;6.862;2022-09-21T06:51:09;99590.22;;;5.60;100.00
60170;BME280;46042;49.444;6.862;2022-09-21T06:53:36;99583.69;;;6.30;100.00
60170;BME280;46042;49.444;6.862;2022-09-21T06:56:05;99585.50;;;6.80;100.00
60170;BME280;46042;49.444;6.862;2022-09-21T06:58:32;99585.41;;;7.55;100.00
60170;BME280;46042;49.444;6.862;2022-09-21T07:01:10;99586.84;;;8.08;98.73
60170;BME280;46042;49.444;6.862;2022-09-21T07:03:38;99584.03;;;8.77;95.35
60170;BME280;46042;49.444;6.862;2022-09-21T07:06:06;99580.78;;;9.69;94.30
60170;BME280;46042;49.444;6.862;2022-09-21T07:08:33;99583.16;;;10.30;90.04
60170;BME280;46042;49.444;6.862;2022-09-21T07:11:21;99586.16;;;10.92;87.37
60170;BME280;46042;49.444;6.862;2022-09-21T07:13:49;99585.00;;;11.32;79.70
60170;BME280;46042;49.444;6.862;2022-09-21T07:16:16;99582.66;;;11.59;81.70
60170;BME280;46042;49.444;6.862;2022-09-21T07:18:43;99583.66;;;12.05;81.07
60170;BME280;46042;49.444;6.862;2022-09-21T07:21:10;99579.91;;;12.70;76.15
60170;BME280;46042;49.444;6.862;2022-09-21T07:23:37;99581.13;;;12.64;71.47
60170;BME280;46042;49.444;6.862;2022-09-21T07:26:10;99586.63;;;12.76;73.03
60170;BME280;46042;49.444;6.862;2022-09-21T07:28:38;99583.63;;;13.26;69.89
60170;BME280;46042;49.444;6.862;2022-09-21T07:31:10;99583.63;;;13.40;67.89
60170;BME280;46042;49.444;6.862;2022-09-21T07:33:37;99592.25;;;13.29;69.22
60170;BME280;46042;49.444;6.862;2022-09-21T07:36:04;99583.25;;;13.46;67.22
60170;BME280;46042;49.444;6.862;2022-09-21T07:38:40;99582.97;;;13.65;67.40
60170;BME280;46042;49.444;6.862;2022-09-21T07:41:09;99577.53;;;13.82;66.64
60170;BME280;46042;49.444;6.862;2022-09-21T07:43:36;99577.88;;;14.17;68.02
60170;BME280;46042;49.444;6.862;2022-09-21T07:46:07;99585.22;;;15.06;69.86
60170;BME280;46042;49.444;6.862;2022-09-21T07:48:34;99574.53;;;14.82;62.83
60170;BME280;46042;49.444;6.862;2022-09-21T07:51:03;99578.13;;;14.93;64.19
60170;BME280;46042;49.444;6.862;2022-09-21T07:53:32;99571.66;;;15.24;63.69
60170;BME280;46042;49.444;6.862;2022-09-21T07:56:01;99567.94;;;15.88;67.71
60170;BME280;46042;49.444;6.862;2022-09-21T07:58:28;99561.00;;;16.47;68.01
60170;BME280;46042;49.444;6.862;2022-09-21T08:01:14;99569.88;;;15.86;61.79
60170;BME280;46042;49.444;6.862;2022-09-21T08:03:41;99565.72;;;15.95;62.66
60170;BME280;46042;49.444;6.862;2022-09-21T08:06:07;99566.22;;;16.24;68.69
60170;BME280;46042;49.444;6.862;2022-09-21T08:08:35;99565.88;;;16.76;65.21
60170;BME280;46042;49.444;6.862;2022-09-21T08:11:05;99567.31;;;15.60;61.36
60170;BME280;46042;49.444;6.862;2022-09-21T08:13:32;99567.81;;;15.28;67.14
60170;BME280;46042;49.444;6.862;2022-09-21T08:16:00;99570.69;;;14.86;68.27
60170;BME280;46042;49.444;6.862;2022-09-21T08:18:27;99576.97;;;14.85;65.91
60170;BME280;46042;49.444;6.862;2022-09-21T08:20:58;99572.34;;;14.61;66.82
60170;BME280;46042;49.444;6.862;2022-09-21T08:23:25;99574.44;;;14.43;62.95
60170;BME280;46042;49.444;6.862;2022-09-21T08:26:01;99571.56;;;14.33;64.68
60170;BME280;46042;49.444;6.862;2022-09-21T08:28:28;99576.56;;;14.10;65.64
60170;BME280;46042;49.444;6.862;2022-09-21T08:31:00;99580.41;;;14.19;67.24
60170;BME280;46042;49.444;6.862;2022-09-21T08:33:27;99569.19;;;15.20;70.70
60170;BME280;46042;49.444;6.862;2022-09-21T08:35:57;99575.88;;;14.87;63.30
60170;BME280;46042;49.444;6.862;2022-09-21T08:38:24;99578.59;;;14.47;65.54
60170;BME280;46042;49.444;6.862;2022-09-21T08:40:55;99571.06;;;14.54;66.20
60170;BME280;46042;49.444;6.862;2022-09-21T08:43:37;99576.09;;;14.97;68.32
60170;BME280;46042;49.444;6.862;2022-09-21T08:46:10;99571.72;;;14.70;62.70
60170;BME280;46042;49.444;6.862;2022-09-21T08:48:42;99568.34;;;14.28;65.11
60170;BME280;46042;49.444;6.862;2022-09-21T08:51:15;99577.84;;;14.04;63.68
60170;BME280;46042;49.444;6.862;2022-09-21T08:53:45;99575.06;;;14.06;65.04
60170;BME280;46042;49.444;6.862;2022-09-21T08:56:15;99574.81;;;14.64;69.29
60170;BME280;46042;49.444;6.862;2022-09-21T08:58:42;99570.81;;;15.10;66.23
60170;BME280;46042;49.444;6.862;2022-09-21T09:12:46;99574.31;;;14.98;62.47
60170;BME280;46042;49.444;6.862;2022-09-21T09:15:29;99562.19;;;15.32;64.84
60170;BME280;46042;49.444;6.862;2022-09-21T09:18:10;99563.38;;;15.53;61.22
60170;BME280;46042;49.444;6.862;2022-09-21T09:20:43;99558.44;;;16.10;60.85
60170;BME280;46042;49.444;6.862;2022-09-21T09:23:24;99552.34;;;16.79;57.57
60170;BME280;46042;49.444;6.862;2022-09-21T09:25:57;99561.56;;;16.98;61.28
60170;BME280;46042;49.444;6.862;2022-09-21T09:31:41;99553.63;;;16.15;54.71
60170;BME280;46042;49.444;6.862;2022-09-21T09:34:12;99556.53;;;16.23;56.89
60170;BME280;46042;49.444;6.862;2022-09-21T09:36:45;99558.13;;;16.61;57.53
60170;BME280;46042;49.444;6.862;2022-09-21T09:39:25;99547.81;;;15.72;53.76
60170;BME280;46042;49.444;6.862;2022-09-21T09:45:28;99550.66;;;16.06;54.20
60170;BME280;46042;49.444;6.862;2022-09-21T09:48:10;99549.75;;;16.19;53.50
60170;BME280;46042;49.444;6.862;2022-09-21T09:50:42;99546.28;;;16.88;56.96
60170;BME280;46042;49.444;6.862;2022-09-21T09:53:24;99540.00;;;17.58;53.32
60170;BME280;46042;49.444;6.862;2022-09-21T09:55:54;99542.66;;;17.69;51.04
60170;BME280;46042;49.444;6.862;2022-09-21T10:01:05;99534.72;;;17.24;49.58
60170;BME280;46042;49.444;6.862;2022-09-21T10:03:31;99533.25;;;17.08;49.60
60170;BME280;46042;49.444;6.862;2022-09-21T10:05:58;99532.78;;;17.03;52.49
60170;BME280;46042;49.444;6.862;2022-09-21T10:11:11;99534.50;;;17.71;49.81
60170;BME280;46042;49.444;6.862;2022-09-21T10:13:40;99525.69;;;18.88;51.21
60170;BME280;46042;49.444;6.862;2022-09-21T10:18:50;99527.56;;;18.45;44.87
60170;BME280;46042;49.444;6.862;2022-09-21T10:23:51;99528.88;;;18.51;43.74
60170;BME280;46042;49.444;6.862;2022-09-21T10:26:19;99520.91;;;18.39;51.51
60170;BME280;46042;49.444;6.862;2022-09-21T10:29:01;99524.19;;;18.64;54.53
60170;BME280;46042;49.444;6.862;2022-09-21T10:31:29;99526.84;;;18.85;52.29
60170;BME280;46042;49.444;6.862;2022-09-21T10:36:33;99517.34;;;19.33;46.95
60170;BME280;46042;49.444;6.862;2022-09-21T10:39:33;99521.06;;;18.16;43.06
60170;BME280;46042;49.444;6.862;2022-09-21T10:42:13;99515.94;;;18.25;45.47
60170;BME280;46042;49.444;6.862;2022-09-21T10:44:42;99521.25;;;18.67;48.76
60170;BME280;46042;49.444;6.862;2022-09-21T10:49:55;99510.91;;;18.53;44.13
60170;BME280;46042;49.444;6.862;2022-09-21T10:52:24;99512.47;;;18.55;44.79
60170;BME280;46042;49.444;6.862;2022-09-21T10:54:56;99504.22;;;18.89;44.17
60170;BME280;46042;49.444;6.862;2022-09-21T10:57:24;99500.53;;;19.72;47.60
60170;BME280;46042;49.444;6.862;2022-09-21T10:59:52;99505.78;;;20.13;43.75
60170;BME280;46042;49.444;6.862;2022-09-21T11:05:19;99498.28;;;20.37;48.54
60170;BME280;46042;49.444;6.862;2022-09-21T11:07:51;99497.72;;;20.43;38.90
60170;BME280;46042;49.444;6.862;2022-09-21T11:13:30;99508.34;;;20.82;39.75
60170;BME280;46042;49.444;6.862;2022-09-21T11:16:07;99500.38;;;21.28;41.48
60170;BME280;46042;49.444;6.862;2022-09-21T11:19:13;99502.75;;;21.96;40.42
60170;BME280;46042;49.444;6.862;2022-09-21T11:22:00;99502.47;;;21.53;37.28
60170;BME280;46042;49.444;6.862;2022-09-21T11:27:28;99492.06;;;19.47;38.77
60170;BME280;46042;49.444;6.862;2022-09-21T11:35:37;99492.66;;;20.10;38.33
60170;BME280;46042;49.444;6.862;2022-09-21T11:38:19;99494.53;;;20.00;39.97
60170;BME280;46042;49.444;6.862;2022-09-21T11:58:22;99481.34;;;18.66;38.79
60170;BME280;46042;49.444;6.862;2022-09-21T12:01:22;99478.34;;;19.21;40.27
60170;BME280;46042;49.444;6.862;2022-09-21T12:12:06;99470.22;;;18.08;41.27
60170;BME280;46042;49.444;6.862;2022-09-21T12:14:59;99466.69;;;18.50;40.17
60170;BME280;46042;49.444;6.862;2022-09-21T12:18:39;99465.31;;;19.47;41.10
60170;BME280;46042;49.444;6.862;2022-09-21T12:26:06;99462.53;;;19.39;38.40
60170;BME280;46042;49.444;6.862;2022-09-21T12:29:13;99463.47;;;19.18;38.57
60170;BME280;46042;49.444;6.862;2022-09-21T12:32:01;99459.00;;;18.98;37.25
60170;BME280;46042;49.444;6.862;2022-09-21T12:34:40;99445.44;;;19.01;38.60
60170;BME280;46042;49.444;6.862;2022-09-21T12:37:25;99444.13;;;19.56;38.56
60170;BME280;46042;49.444;6.862;2022-09-21T12:42:32;99441.44;;;19.36;41.90
60170;BME280;46042;49.444;6.862;2022-09-21T12:45:12;99442.44;;;19.55;39.93
60170;BME280;46042;49.444;6.862;2022-09-21T12:50:26;99440.31;;;18.98;40.57
60170;BME280;46042;49.444;6.862;2022-09-21T12:52:53;99443.50;;;19.13;41.85
60170;BME280;46042;49.444;6.862;2022-09-21T13:03:53;99431.88;;;20.12;44.89
60170;BME280;46042;49.444;6.862;2022-09-21T13:06:44;99430.03;;;20.13;37.58
60170;BME280;46042;49.444;6.862;2022-09-21T13:09:16;99428.75;;;20.65;38.55
60170;BME280;46042;49.444;6.862;2022-09-21T13:11:55;99435.13;;;20.54;37.98
60170;BME280;46042;49.444;6.862;2022-09-21T13:14:27;99430.28;;;20.29;38.95
60170;BME280;46042;49.444;6.862;2022-09-21T13:16:57;99418.44;;;20.70;41.38
60170;BME280;46042;49.444;6.862;2022-09-21T13:19:28;99422.31;;;20.57;36.87
60170;BME280;46042;49.444;6.862;2022-09-21T13:25:23;99423.34;;;20.84;38.99
60170;BME280;46042;49.444;6.862;2022-09-21T13:30:44;99419.72;;;21.03;36.77
60170;BME280;46042;49.444;6.862;2022-09-21T13:54:32;99400.22;;;19.29;39.80
60170;BME280;46042;49.444;6.862;2022-09-21T13:57:34;99394.88;;;19.58;39.20
60170;BME280;46042;49.444;6.862;2022-09-21T14:05:24;99393.66;;;20.40;38.84
60170;BME280;46042;49.444;6.862;2022-09-21T14:07:57;99386.75;;;20.75;40.79
60170;BME280;46042;49.444;6.862;2022-09-21T14:10:27;99393.41;;;20.61;38.36
60170;BME280;46042;49.444;6.862;2022-09-21T14:12:55;99396.03;;;20.43;36.62
60170;BME280;46042;49.444;6.862;2022-09-21T14:20:37;99394.88;;;19.29;42.08
60170;BME280;46042;49.444;6.862;2022-09-21T14:23:28;99396.00;;;19.26;42.35
60170;BME280;46042;49.444;6.862;2022-09-21T14:25:58;99395.66;;;19.00;41.64
60170;BME280;46042;49.444;6.862;2022-09-21T14:31:12;99392.72;;;18.62;45.97
60170;BME280;46042;49.444;6.862;2022-09-21T14:33:42;99396.41;;;18.71;45.61
60170;BME280;46042;49.444;6.862;2022-09-21T14:36:17;99383.06;;;19.12;46.03
60170;BME280;46042;49.444;6.862;2022-09-21T14:38:51;99387.28;;;19.34;44.96
60170;BME280;46042;49.444;6.862;2022-09-21T14:41:23;99377.84;;;19.79;45.52
60170;BME280;46042;49.444;6.862;2022-09-21T14:43:52;99381.06;;;19.83;43.64
60170;BME280;46042;49.444;6.862;2022-09-21T14:49:03;99380.81;;;19.66;40.84
60170;BME280;46042;49.444;6.862;2022-09-21T14:54:36;99374.66;;;19.46;41.07
60170;BME280;46042;49.444;6.862;2022-09-21T14:57:24;99378.28;;;18.74;41.70
60170;BME280;46042;49.444;6.862;2022-09-21T15:00:21;99372.31;;;18.20;41.67
60170;BME280;46042;49.444;6.862;2022-09-21T15:12:16;99365.16;;;17.99;47.56
60170;BME280;46042;49.444;6.862;2022-09-21T15:17:55;99360.75;;;18.10;46.31
60170;BME280;46042;49.444;6.862;2022-09-21T15:20:27;99363.94;;;18.03;46.23
60170;BME280;46042;49.444;6.862;2022-09-21T15:22:56;99363.31;;;18.00;45.84
60170;BME280;46042;49.444;6.862;2022-09-21T15:25:28;99366.84;;;17.79;46.57
60170;BME280;46042;49.444;6.862;2022-09-21T15:27:57;99370.69;;;17.65;46.00
60170;BME280;46042;49.444;6.862;2022-09-21T15:30:27;99369.44;;;17.69;47.22
60170;BME280;46042;49.444;6.862;2022-09-21T15:32:59;99368.59;;;17.69;49.28
60170;BME280;46042;49.444;6.862;2022-09-21T15:35:31;99359.19;;;17.65;51.05
60170;BME280;46042;49.444;6.862;2022-09-21T15:38:00;99361.78;;;17.55;48.08
60170;BME280;46042;49.444;6.862;2022-09-21T15:40:35;99357.16;;;17.57;46.89
60170;BME280;46042;49.444;6.862;2022-09-21T15:46:02;99355.16;;;17.16;45.54
60170;BME280;46042;49.444;6.862;2022-09-21T15:48:38;99361.25;;;16.84;46.04
60170;BME280;46042;49.444;6.862;2022-09-21T15:53:57;99351.38;;;16.52;45.61
60170;BME280;46042;49.444;6.862;2022-09-21T15:56:27;99357.91;;;16.37;48.19
60170;BME280;46042;49.444;6.862;2022-09-21T15:58:59;99361.63;;;16.34;47.26
60170;BME280;46042;49.444;6.862;2022-09-21T16:01:42;99357.44;;;16.31;49.36
60170;BME280;46042;49.444;6.862;2022-09-21T16:04:16;99351.38;;;16.18;49.51
60170;BME280;46042;49.444;6.862;2022-09-21T16:07:05;99351.34;;;16.06;49.86
60170;BME280;46042;49.444;6.862;2022-09-21T16:09:40;99361.97;;;15.95;49.87
60170;BME280;46042;49.444;6.862;2022-09-21T16:12:32;99366.84;;;15.77;51.33
60170;BME280;46042;49.444;6.862;2022-09-21T16:15:22;99357.78;;;15.68;51.72
60170;BME280;46042;49.444;6.862;2022-09-21T16:17:55;99366.91;;;15.53;52.44
60170;BME280;46042;49.444;6.862;2022-09-21T16:20:37;99365.16;;;15.40;52.50
60170;BME280;46042;49.444;6.862;2022-09-21T16:23:11;99363.66;;;15.25;53.47
60170;BME280;46042;49.444;6.862;2022-09-21T16:25:39;99375.56;;;15.19;54.02
60170;BME280;46042;49.444;6.862;2022-09-21T16:30:50;99373.31;;;15.01;58.06
60170;BME280;46042;49.444;6.862;2022-09-21T16:33:36;99369.75;;;14.89;58.02
60170;BME280;46042;49.444;6.862;2022-09-21T16:38:57;99386.00;;;14.72;55.75
60170;BME280;46042;49.444;6.862;2022-09-21T16:41:32;99374.84;;;14.67;58.31
60170;BME280;46042;49.444;6.862;2022-09-21T16:44:00;99374.22;;;14.63;57.76
60170;BME280;46042;49.444;6.862;2022-09-21T16:46:29;99380.69;;;14.59;57.28
60170;BME280;46042;49.444;6.862;2022-09-21T16:48:57;99381.69;;;14.45;58.85
60170;BME280;46042;49.444;6.862;2022-09-21T16:51:27;99373.31;;;14.25;55.42